Airfield :
LOGIN :

Register | Disclaimer

   EN    FR    IT 

 










Legend :    VFR   Marginal VFR   IFR   Intensive IFR   Very Intensive IFR
Visi :
Ceiling :
>= 8 km
>= 3000ft
5 to 8 km
1000 to 3000 ft
1500m to 5 km
500 to 1000 ft
800 to 1500m
200 to 500 ft
< 800m
< 200 ft
Symbols :   Thunderstorms  Fog  Heavy snow  Heavy precipitations  Wind > 20 kt
SIGMETs :     Misc.  Thunderstorms  Icing  Turbulence  Mountain Waves  Volcanic Ashes







- Airport Elevation : 935 ft


EBFS - Florennes

CURRENT METAR :
  • 230255Z AUTO VRB01KT 9999 SCT100/// BKN120/// OVC140/// 09/07 Q1019 BLU

EXPIRED METARs :
  • 230225Z AUTO VRB01KT 9999 FEW090/// BKN110/// BKN140/// 09/07 Q1019 BLU
  • 230155Z AUTO VRB02KT 9999 FEW110/// SCT140/// BKN220/// 09/05 Q1019 BLU
  • 230125Z AUTO VRB02KT 9999 FEW095/// SCT120/// BKN130/// 10/04 Q1020 BLU
  • 230055Z AUTO VRB02KT 9999 SCT110/// BKN150/// BKN220/// 11/03 Q1020 BLU
  • 230025Z AUTO VRB01KT 9999 FEW095/// SCT120/// BKN150/// 11/04 Q1020 BLU

TAF AMD TAF EBFS
Valid from the 22 at 19:00 until the 23 at 07:00 UTC


221910Z 2219/2307 30008KT 9999 FEW040 SCT160
BECMG 2302/2304 VRB04KT 5000 BR FEW040 BKN160
TEMPO 2303/2307 2000 BR
PROB30
TEMPO 2304/2307 1000 BR
No reported NOTAMs for that airfield.



MET'MAP, your aeronautical weather chart ! - Copyright ORBIFLY December 2007 - Disclaimer

ORBIFLY MET'MAP TEAM :

Programming & Development : Alexandra Zaïnal
Concept & Development : Baudouin d'Aumeries
Co-Development & Prog : Marc-Olivier Méhu
Technical & hardware support : Manuel Goepfert

Contact : metmap@orbifly.com




SOURCES & CREDITS :

   NOAA